Time;durP1;ratioP1;P1;durP2;ratioP2;P2;SDS_P1;SDS_P2;PMS_P1;PMS_P2;Temp;Humidity;BMP_temperature;BMP_pressure;BME280_temperature;BME280_humidity;BME280_pressure;Samples;Min_cycle;Max_cycle;Signal;HPM_P1;HPM_P2
2024/01/16 00:00:00;;;;;;;5.37;3.10;;;12.60;69.30;;;;;;4593533;19;20408;-69
2024/01/16 00:01:36;;;;;;;3.30;1.67;;;12.60;69.80;;;;;;4591972;19;20864;-69
2024/01/16 00:03:10;;;;;;;3.17;1.90;;;12.50;68.70;;;;;;4591794;19;20481;-68
2024/01/16 00:04:45;;;;;;;6.10;3.40;;;12.60;69.60;;;;;;4592436;19;20397;-68
2024/01/16 00:06:21;;;;;;;3.67;1.50;;;12.60;69.90;;;;;;4593537;19;20002;-68
2024/01/16 00:07:55;;;;;;;3.97;2.03;;;12.60;69.70;;;;;;4593352;19;20441;-69
2024/01/16 00:09:30;;;;;;;2.67;1.00;;;12.60;69.50;;;;;;4589939;19;20401;-69
2024/01/16 00:11:05;;;;;;;2.70;1.30;;;12.60;68.80;;;;;;4593107;19;20023;-69
2024/01/16 00:12:40;;;;;;;2.30;1.10;;;12.60;68.50;;;;;;4592614;19;21022;-69
2024/01/16 00:14:14;;;;;;;4.13;1.63;;;12.60;69.10;;;;;;4592926;19;20451;-69
2024/01/16 00:15:50;;;;;;;4.60;1.60;;;12.60;69.20;;;;;;4592971;19;20740;-68
2024/01/16 00:17:23;;;;;;;2.67;1.20;;;12.60;68.70;;;;;;4593023;19;20462;-69
2024/01/16 00:18:58;;;;;;;4.23;1.60;;;12.60;68.80;;;;;;4592332;19;20516;-69
2024/01/16 00:20:34;;;;;;;2.40;1.10;;;12.60;69.00;;;;;;4593184;19;20484;-68
2024/01/16 00:22:08;;;;;;;3.90;1.27;;;12.60;68.90;;;;;;4592533;19;20413;-69
2024/01/16 00:23:45;;;;;;;2.90;1.37;;;12.70;69.20;;;;;;4591937;19;20445;-68
2024/01/16 00:25:20;;;;;;;3.13;1.23;;;12.60;69.20;;;;;;4591263;19;20401;-69
2024/01/16 00:26:54;;;;;;;3.27;1.10;;;12.70;69.20;;;;;;4592995;19;20437;-69
2024/01/16 00:28:28;;;;;;;3.67;0.87;;;12.60;68.60;;;;;;4592123;19;21011;-69
2024/01/16 00:30:05;;;;;;;3.13;1.30;;;12.60;68.70;;;;;;4593026;19;20931;-69
2024/01/16 00:31:42;;;;;;;4.60;2.17;;;12.60;69.30;;;;;;4592778;19;20387;-69
2024/01/16 00:33:18;;;;;;;13.70;6.17;;;12.60;69.30;;;;;;4591829;19;20449;-69
2024/01/16 00:34:52;;;;;;;4.70;2.13;;;12.60;69.20;;;;;;4592278;19;21012;-69
2024/01/16 00:36:26;;;;;;;5.77;2.30;;;12.60;68.90;;;;;;4592355;19;20525;-69
2024/01/16 00:38:03;;;;;;;5.33;2.27;;;12.70;69.60;;;;;;4592648;19;20492;-69
2024/01/16 00:39:38;;;;;;;5.90;2.30;;;12.70;70.00;;;;;;4592421;19;20413;-69
2024/01/16 00:41:14;;;;;;;7.60;2.70;;;12.70;68.70;;;;;;4592425;19;20449;-69
2024/01/16 00:42:49;;;;;;;3.80;1.63;;;12.70;68.70;;;;;;4590904;19;20959;-68
2024/01/16 00:44:24;;;;;;;4.07;1.40;;;12.70;69.40;;;;;;4591540;19;20452;-69
2024/01/16 00:45:57;;;;;;;4.97;1.50;;;12.70;69.20;;;;;;4592646;19;20401;-69
2024/01/16 00:47:33;;;;;;;2.93;0.87;;;12.80;69.20;;;;;;4592411;19;20019;-68
2024/01/16 00:49:09;;;;;;;19.70;7.67;;;12.80;69.20;;;;;;4592317;19;20381;-68
2024/01/16 00:50:43;;;;;;;4.33;1.97;;;12.80;69.40;;;;;;4592304;19;20492;-69
2024/01/16 00:52:20;;;;;;;16.13;9.10;;;12.80;69.50;;;;;;4591932;19;20322;-69
2024/01/16 00:53:55;;;;;;;5.67;2.87;;;12.80;68.80;;;;;;4592543;19;20445;-69
2024/01/16 00:55:29;;;;;;;7.53;3.83;;;12.80;69.10;;;;;;4590725;19;20757;-69
2024/01/16 00:57:05;;;;;;;4.93;3.20;;;12.90;69.60;;;;;;4591631;19;20006;-69
2024/01/16 00:58:40;;;;;;;4.20;3.17;;;12.90;69.00;;;;;;4592023;19;20030;-69
2024/01/16 01:10:09;;;;;;;4.30;1.20;;;12.90;68.80;;;;;;4546728;19;19998;31
2024/01/16 01:11:45;;;;;;;6.03;2.70;;;12.90;68.30;;;;;;4590546;19;20479;-68
2024/01/16 01:13:18;;;;;;;3.67;1.33;;;12.90;68.00;;;;;;4591044;19;20011;-68
2024/01/16 01:14:52;;;;;;;2.43;0.97;;;12.90;68.00;;;;;;4591678;19;20006;-68
2024/01/16 01:16:29;;;;;;;3.33;1.20;;;12.80;67.90;;;;;;4591410;19;20959;-68
2024/01/16 01:18:04;;;;;;;2.00;0.80;;;12.80;68.40;;;;;;4591612;19;20433;-73
2024/01/16 01:19:39;;;;;;;2.27;0.80;;;12.80;68.60;;;;;;4590584;19;20385;-69
2024/01/16 01:21:14;;;;;;;2.40;1.10;;;12.90;68.40;;;;;;4595021;19;20073;-70
2024/01/16 01:22:49;;;;;;;3.27;1.40;;;12.80;68.30;;;;;;4596584;19;20022;-68
2024/01/16 01:24:23;;;;;;;3.53;1.20;;;12.90;68.70;;;;;;4594582;19;20404;-68
2024/01/16 01:25:58;;;;;;;1.60;0.90;;;12.80;67.90;;;;;;4595472;19;20408;-70
2024/01/16 01:27:32;;;;;;;2.43;1.10;;;12.80;67.90;;;;;;4596394;19;19998;-70
2024/01/16 01:29:06;;;;;;;3.40;1.43;;;12.70;67.60;;;;;;4596483;19;20005;-71
2024/01/16 01:30:45;;;;;;;1.53;0.90;;;12.70;67.80;;;;;;4594316;19;20007;-71
2024/01/16 01:32:20;;;;;;;2.70;1.07;;;12.70;68.10;;;;;;4595827;19;20773;-69
2024/01/16 01:33:54;;;;;;;2.50;1.73;;;12.70;67.70;;;;;;4596353;19;20010;-69
2024/01/16 01:35:30;;;;;;;2.00;0.97;;;12.70;67.60;;;;;;4596310;19;20450;-69
2024/01/16 01:37:04;;;;;;;2.87;1.30;;;12.70;67.60;;;;;;4596235;19;20427;-71
2024/01/16 01:38:38;;;;;;;3.77;1.27;;;12.80;67.90;;;;;;4596284;19;20415;-69
2024/01/16 01:40:15;;;;;;;2.80;1.17;;;12.80;67.70;;;;;;4595892;19;20432;-70
2024/01/16 01:41:49;;;;;;;2.77;0.77;;;12.70;67.10;;;;;;4596541;19;20017;-68
2024/01/16 01:43:24;;;;;;;1.83;1.00;;;12.70;67.50;;;;;;4596393;19;20035;-68
2024/01/16 01:44:59;;;;;;;4.10;1.37;;;12.70;67.40;;;;;;4593101;19;20405;-68
2024/01/16 01:46:34;;;;;;;5.03;2.07;;;12.70;67.40;;;;;;4594874;19;20541;-68
2024/01/16 01:48:10;;;;;;;3.33;1.40;;;12.70;67.40;;;;;;4595486;19;20014;-68
2024/01/16 01:49:45;;;;;;;2.97;1.30;;;12.70;67.40;;;;;;4594424;19;20419;-68
2024/01/16 01:51:19;;;;;;;6.27;1.90;;;12.70;67.10;;;;;;4593760;19;20517;-68
2024/01/16 01:52:53;;;;;;;3.83;1.60;;;12.70;67.20;;;;;;4595756;19;20408;-68
2024/01/16 01:54:28;;;;;;;5.90;2.17;;;12.70;67.20;;;;;;4594685;19;20345;-70
2024/01/16 01:56:05;;;;;;;2.50;1.17;;;12.70;67.40;;;;;;4594277;19;20462;-68
2024/01/16 01:57:40;;;;;;;4.97;2.63;;;12.70;67.50;;;;;;4594432;19;20381;-68
2024/01/16 01:59:15;;;;;;;3.20;1.73;;;12.70;67.40;;;;;;4594079;19;20010;-68
2024/01/16 02:00:49;;;;;;;3.57;1.27;;;12.80;67.10;;;;;;4593124;19;20457;-68
2024/01/16 02:02:23;;;;;;;3.17;1.33;;;12.80;67.20;;;;;;4595386;19;20031;-68
2024/01/16 02:03:58;;;;;;;4.37;2.50;;;12.80;67.00;;;;;;4594248;19;20023;-68
2024/01/16 02:05:32;;;;;;;4.37;1.93;;;12.80;66.70;;;;;;4595348;19;20450;-68
2024/01/16 02:07:06;;;;;;;2.03;1.23;;;12.80;66.80;;;;;;4594598;19;20426;-68
2024/01/16 02:08:44;;;;;;;4.63;2.00;;;12.80;66.80;;;;;;4595288;19;20076;-68
2024/01/16 02:10:18;;;;;;;5.93;2.83;;;12.80;66.80;;;;;;4595050;19;20397;-68
2024/01/16 02:11:53;;;;;;;1.83;1.10;;;12.80;66.60;;;;;;4593968;19;20425;-68
2024/01/16 02:13:30;;;;;;;4.07;2.23;;;12.80;66.60;;;;;;4595595;19;20401;-68
2024/01/16 02:15:05;;;;;;;3.90;2.20;;;12.80;67.00;;;;;;4594242;19;20322;-68
2024/01/16 02:16:44;;;;;;;5.77;3.60;;;12.80;67.10;;;;;;4595313;19;20442;-68
2024/01/16 02:18:19;;;;;;;3.10;1.40;;;12.80;67.30;;;;;;4595576;19;20010;-68
2024/01/16 02:19:56;;;;;;;3.33;1.87;;;12.80;66.90;;;;;;4593801;19;20981;-68
2024/01/16 02:21:30;;;;;;;2.80;1.60;;;12.80;66.80;;;;;;4593041;19;20014;-68
2024/01/16 02:23:06;;;;;;;3.33;1.67;;;12.80;66.50;;;;;;4595199;19;20393;-68
2024/01/16 02:24:39;;;;;;;1.63;0.70;;;12.80;66.30;;;;;;4594229;19;20429;-68
2024/01/16 02:26:18;;;;;;;4.83;1.90;;;12.80;66.40;;;;;;4593028;19;20009;-68
2024/01/16 02:27:54;;;;;;;2.23;0.77;;;12.80;66.70;;;;;;4593743;19;20457;-68
2024/01/16 02:29:28;;;;;;;1.40;0.50;;;12.80;66.20;;;;;;4594957;19;20405;-68
2024/01/16 02:31:02;;;;;;;1.53;0.87;;;12.80;65.90;;;;;;4593924;19;20986;-68
2024/01/16 02:32:38;;;;;;;1.47;0.67;;;12.70;66.00;;;;;;4593987;19;20023;-68
2024/01/16 02:34:13;;;;;;;1.57;0.80;;;12.70;66.40;;;;;;4595162;19;19998;-68
2024/01/16 02:35:47;;;;;;;1.33;0.60;;;12.80;66.70;;;;;;4595374;19;20796;-68
2024/01/16 02:37:22;;;;;;;3.00;1.00;;;12.70;66.30;;;;;;4595142;19;20716;-68
2024/01/16 02:38:56;;;;;;;2.87;1.33;;;12.80;66.20;;;;;;4593689;19;20438;-68
2024/01/16 02:40:32;;;;;;;3.20;1.20;;;12.80;66.40;;;;;;4593418;19;20453;-68
2024/01/16 02:42:07;;;;;;;3.20;1.10;;;12.80;66.30;;;;;;4594905;19;20003;-68
2024/01/16 02:43:42;;;;;;;2.77;1.10;;;12.80;66.50;;;;;;4593602;19;20544;-68
2024/01/16 02:45:16;;;;;;;3.47;0.90;;;12.80;66.40;;;;;;4593187;19;20770;-68
2024/01/16 02:46:52;;;;;;;2.87;1.10;;;12.80;66.20;;;;;;4594951;19;20453;-68
2024/01/16 02:48:26;;;;;;;3.07;1.90;;;12.80;66.30;;;;;;4594816;19;20385;-68
2024/01/16 02:50:01;;;;;;;5.03;2.97;;;12.80;66.40;;;;;;4594787;19;20002;-68
2024/01/16 02:51:38;;;;;;;4.60;2.27;;;12.80;66.40;;;;;;4595159;19;20002;-68
2024/01/16 02:53:13;;;;;;;2.27;1.27;;;12.90;66.60;;;;;;4594709;19;20393;-68
2024/01/16 02:54:47;;;;;;;2.60;1.20;;;12.80;66.00;;;;;;4594777;19;20006;-68
2024/01/16 02:57:04;;;;;;;1.87;0.90;;;12.80;66.20;;;;;;4594660;19;20011;-68
2024/01/16 02:58:38;;;;;;;2.97;1.40;;;12.80;66.30;;;;;;4593811;19;20509;-68
2024/01/16 03:00:14;;;;;;;3.17;1.43;;;12.80;66.00;;;;;;4593050;19;20425;-68
2024/01/16 03:01:48;;;;;;;3.27;1.20;;;12.80;65.90;;;;;;4594463;19;20413;-68
2024/01/16 03:03:22;;;;;;;3.07;0.87;;;12.80;66.00;;;;;;4594584;19;20712;-68
2024/01/16 03:04:58;;;;;;;2.57;1.30;;;12.80;66.10;;;;;;4593978;19;20492;-70
2024/01/16 03:06:33;;;;;;;2.63;1.23;;;12.80;66.20;;;;;;4594794;19;20948;-70
2024/01/16 03:08:08;;;;;;;10.73;4.33;;;12.80;66.00;;;;;;4594427;19;20709;-70
2024/01/16 03:09:44;;;;;;;19.00;8.03;;;12.80;65.80;;;;;;4594436;19;20439;-70
2024/01/16 03:11:18;;;;;;;15.23;6.60;;;12.80;66.30;;;;;;4593141;19;20018;-70
2024/01/16 03:12:52;;;;;;;18.80;7.30;;;12.80;66.50;;;;;;4594350;19;20492;-70
2024/01/16 03:14:33;;;;;;;6.17;2.53;;;12.80;66.20;;;;;;4594150;19;20961;-70
2024/01/16 03:16:09;;;;;;;13.83;5.47;;;12.80;66.10;;;;;;4594666;19;20396;-70
2024/01/16 03:17:43;;;;;;;12.40;4.77;;;12.80;66.40;;;;;;4594547;19;20449;-70
2024/01/16 03:19:18;;;;;;;6.27;2.90;;;12.80;66.80;;;;;;4594401;19;20002;-70
2024/01/16 03:20:52;;;;;;;8.40;3.33;;;12.80;66.30;;;;;;4593377;19;20461;-70
2024/01/16 03:22:26;;;;;;;18.23;7.07;;;12.80;66.40;;;;;;4594217;19;20385;-70
2024/01/16 03:24:02;;;;;;;11.13;4.43;;;12.80;66.60;;;;;;4594062;19;20404;-70
2024/01/16 03:25:38;;;;;;;10.97;4.50;;;12.80;66.80;;;;;;4594072;19;20026;-70
2024/01/16 03:27:12;;;;;;;4.63;1.90;;;12.80;66.70;;;;;;4594144;19;20003;-70
2024/01/16 03:28:49;;;;;;;6.37;2.80;;;12.80;66.10;;;;;;4594090;19;20066;-70
2024/01/16 03:30:24;;;;;;;7.03;3.07;;;12.80;66.20;;;;;;4593600;19;20397;-70
2024/01/16 03:31:58;;;;;;;5.73;2.80;;;12.80;66.60;;;;;;4593966;19;20409;-70
2024/01/16 03:33:35;;;;;;;4.80;2.40;;;12.80;66.60;;;;;;4592653;19;20492;-70
2024/01/16 03:35:09;;;;;;;3.70;1.47;;;12.90;66.50;;;;;;4592590;19;19999;-70
2024/01/16 03:36:43;;;;;;;4.13;2.37;;;12.90;65.70;;;;;;4593787;19;20002;-70
2024/01/16 03:38:18;;;;;;;4.50;2.67;;;12.80;65.70;;;;;;4593711;19;20518;-70
2024/01/16 03:39:54;;;;;;;4.07;1.93;;;12.80;66.10;;;;;;4593477;19;20428;-70
2024/01/16 03:41:28;;;;;;;2.13;0.90;;;12.80;65.90;;;;;;4591254;19;20460;-70
2024/01/16 03:43:05;;;;;;;2.03;1.00;;;12.80;65.60;;;;;;4593249;19;20431;-70
2024/01/16 03:44:42;;;;;;;7.07;3.17;;;12.80;65.50;;;;;;4591309;19;20950;-70
2024/01/16 03:46:16;;;;;;;6.40;3.30;;;12.80;65.50;;;;;;4593495;19;20459;-70
2024/01/16 03:47:52;;;;;;;2.63;1.07;;;12.80;65.60;;;;;;4593539;19;20007;-70
2024/01/16 03:49:27;;;;;;;3.07;1.70;;;12.80;65.40;;;;;;4592753;19;20089;-70
2024/01/16 03:51:03;;;;;;;5.17;2.60;;;12.80;65.80;;;;;;4592684;19;20013;-70
2024/01/16 03:52:40;;;;;;;8.97;5.33;;;12.80;65.90;;;;;;4593524;19;20006;-70
2024/01/16 03:54:14;;;;;;;8.37;5.07;;;12.80;66.10;;;;;;4593711;19;20393;-70
2024/01/16 03:55:49;;;;;;;6.50;3.77;;;12.80;66.40;;;;;;4592977;19;20408;-70
2024/01/16 03:57:24;;;;;;;5.40;2.77;;;12.80;66.10;;;;;;4593537;19;20009;-70
2024/01/16 03:58:58;;;;;;;4.87;2.20;;;12.80;65.50;;;;;;4593470;19;20002;-70
2024/01/16 04:00:33;;;;;;;6.37;3.07;;;12.80;65.60;;;;;;4592653;19;20043;-70
2024/01/16 04:02:09;;;;;;;6.17;2.47;;;12.80;65.30;;;;;;4593206;19;20997;-70
2024/01/16 04:03:44;;;;;;;3.77;1.40;;;12.80;65.10;;;;;;4593457;19;20006;-70
2024/01/16 04:05:19;;;;;;;6.73;3.13;;;12.70;64.90;;;;;;4592007;19;20447;-70
2024/01/16 04:06:54;;;;;;;6.53;3.60;;;12.80;65.20;;;;;;4592825;19;20003;-70
2024/01/16 04:08:28;;;;;;;5.30;2.27;;;12.80;65.70;;;;;;4592718;19;20401;-70
2024/01/16 04:10:05;;;;;;;3.37;1.53;;;12.80;65.30;;;;;;4592853;19;20003;-70
2024/01/16 04:11:51;;;;;;;3.40;1.57;;;12.80;65.10;;;;;;4591836;19;20503;-70
2024/01/16 04:13:25;;;;;;;3.37;1.80;;;12.80;65.40;;;;;;4591428;19;20010;-70
2024/01/16 04:15:01;;;;;;;4.77;1.60;;;12.80;65.10;;;;;;4592770;19;20703;-69
2024/01/16 04:16:36;;;;;;;13.87;8.93;;;12.80;65.40;;;;;;4592719;19;20523;-70
2024/01/16 04:18:10;;;;;;;18.23;7.80;;;12.70;65.10;;;;;;4592741;19;20409;-70
2024/01/16 04:19:46;;;;;;;11.23;5.10;;;12.80;65.40;;;;;;4592820;19;20493;-70
2024/01/16 04:21:21;;;;;;;8.20;3.73;;;12.80;65.80;;;;;;4591889;19;21044;-70
2024/01/16 04:22:56;;;;;;;4.97;2.07;;;12.80;65.40;;;;;;4591460;19;20397;-70
2024/01/16 04:24:32;;;;;;;8.50;3.73;;;12.80;65.50;;;;;;4591156;19;20417;-70
2024/01/16 04:26:05;;;;;;;7.93;4.00;;;12.80;65.50;;;;;;4591195;19;20013;-70
2024/01/16 04:27:40;;;;;;;7.70;4.33;;;12.80;65.80;;;;;;4590663;19;20453;-70
2024/01/16 04:29:15;;;;;;;6.97;3.63;;;12.80;65.60;;;;;;4590063;19;20392;-70
2024/01/16 04:30:50;;;;;;;4.87;2.40;;;12.80;65.40;;;;;;4591518;19;20453;-70
2024/01/16 04:32:25;;;;;;;4.20;2.00;;;12.80;65.60;;;;;;4592698;19;20413;-70
2024/01/16 04:34:00;;;;;;;3.33;1.37;;;12.80;66.00;;;;;;4592398;19;20480;-70
2024/01/16 04:35:35;;;;;;;3.83;1.90;;;12.80;66.00;;;;;;4590934;19;20425;-70
2024/01/16 04:37:08;;;;;;;3.83;1.63;;;12.80;65.70;;;;;;4591902;19;20431;-69
2024/01/16 04:38:45;;;;;;;4.97;1.80;;;12.80;65.60;;;;;;4592497;19;20457;-70
2024/01/16 04:40:19;;;;;;;6.23;2.70;;;12.80;65.60;;;;;;4592326;19;20003;-70
2024/01/16 04:41:53;;;;;;;4.53;2.20;;;12.80;66.20;;;;;;4592474;19;20448;-69
2024/01/16 04:43:28;;;;;;;6.43;2.57;;;12.80;66.10;;;;;;4592361;19;20397;-72
2024/01/16 04:45:04;;;;;;;3.03;1.33;;;12.80;65.90;;;;;;4592049;19;20513;-72
2024/01/16 04:46:38;;;;;;;5.27;2.23;;;12.90;65.50;;;;;;4592395;19;20401;-73
2024/01/16 04:48:14;;;;;;;5.80;2.37;;;12.80;65.00;;;;;;4592419;19;20007;-70
2024/01/16 04:49:49;;;;;;;7.63;3.77;;;12.90;65.40;;;;;;4592429;19;21125;-69
2024/01/16 04:51:25;;;;;;;6.50;3.07;;;12.90;65.70;;;;;;4590739;19;20011;-70
2024/01/16 04:53:01;;;;;;;8.27;3.67;;;13.10;65.70;;;;;;4592570;19;20044;-70
2024/01/16 04:54:36;;;;;;;6.87;3.83;;;13.20;65.60;;;;;;4591337;19;20006;-70
2024/01/16 04:56:10;;;;;;;4.90;2.17;;;13.40;65.50;;;;;;4591832;19;20002;-70
2024/01/16 04:57:46;;;;;;;5.47;2.87;;;13.50;65.40;;;;;;4592263;19;20381;-71
2024/01/16 04:59:20;;;;;;;16.33;8.93;;;13.60;64.90;;;;;;4591585;19;20369;-71
2024/01/16 05:00:54;;;;;;;13.03;7.40;;;13.70;65.10;;;;;;4591002;19;20021;-71
2024/01/16 05:02:29;;;;;;;17.00;10.27;;;13.80;65.60;;;;;;4591882;19;20415;-71
2024/01/16 05:04:04;;;;;;;5.40;3.23;;;13.80;65.20;;;;;;4592285;19;20433;-71
2024/01/16 05:05:44;;;;;;;6.93;3.17;;;13.90;65.40;;;;;;4590774;19;20006;-73
2024/01/16 05:07:23;;;;;;;6.17;2.77;;;13.90;65.20;;;;;;4591846;19;20006;-71
2024/01/16 05:09:00;;;;;;;4.87;2.60;;;13.90;65.10;;;;;;4590551;19;20413;-72
2024/01/16 05:10:35;;;;;;;6.70;3.30;;;13.90;65.80;;;;;;4590689;19;20376;-71
2024/01/16 05:12:12;;;;;;;8.30;4.70;;;14.00;64.80;;;;;;4591472;19;20010;-71
2024/01/16 05:13:46;;;;;;;6.70;3.67;;;13.90;64.40;;;;;;4591315;19;20435;-71
2024/01/16 05:15:21;;;;;;;5.77;3.10;;;13.90;64.70;;;;;;4591562;19;20389;-71
2024/01/16 05:17:00;;;;;;;6.43;3.77;;;13.90;64.90;;;;;;4590053;19;20019;-71
2024/01/16 05:18:35;;;;;;;10.37;6.07;;;13.90;64.90;;;;;;4590981;19;20011;-70
2024/01/16 05:20:10;;;;;;;6.70;3.00;;;13.90;64.40;;;;;;4591287;19;20010;-72
2024/01/16 05:21:46;;;;;;;13.13;7.83;;;13.90;64.30;;;;;;4591947;19;19998;-70
2024/01/16 05:23:21;;;;;;;10.30;6.50;;;13.80;64.90;;;;;;4592033;19;20010;-70
2024/01/16 05:24:56;;;;;;;12.17;8.00;;;13.80;64.50;;;;;;4591073;19;19998;-69
2024/01/16 05:26:32;;;;;;;12.17;8.40;;;13.80;64.40;;;;;;4590137;19;20009;-70
2024/01/16 05:28:07;;;;;;;7.30;3.97;;;13.70;64.40;;;;;;4591438;19;19999;-69
2024/01/16 05:29:44;;;;;;;13.00;9.10;;;13.70;64.60;;;;;;4591657;19;20009;-69
2024/01/16 05:31:20;;;;;;;15.30;10.13;;;13.70;65.10;;;;;;4590948;19;20074;-70
2024/01/16 05:32:53;;;;;;;6.17;3.90;;;13.80;65.10;;;;;;4591702;19;20007;-70
2024/01/16 05:34:29;;;;;;;3.47;1.77;;;13.80;65.00;;;;;;4590271;19;20291;-69
2024/01/16 05:36:04;;;;;;;8.13;4.83;;;13.90;64.40;;;;;;4591349;19;20367;-69
2024/01/16 05:37:38;;;;;;;7.63;4.17;;;13.90;64.00;;;;;;4591813;19;20089;-69
2024/01/16 05:39:13;;;;;;;11.03;6.40;;;14.00;64.30;;;;;;4590205;19;20002;-69
2024/01/16 05:40:50;;;;;;;37.07;24.80;;;14.10;64.40;;;;;;4590831;19;20017;-69
2024/01/16 05:42:24;;;;;;;41.90;25.67;;;14.20;64.20;;;;;;4591781;19;20023;-69
2024/01/16 05:43:58;;;;;;;47.47;28.50;;;14.30;64.20;;;;;;4590122;19;20054;-69
2024/01/16 05:45:34;;;;;;;42.67;27.53;;;14.40;64.00;;;;;;4589957;19;20466;-69
2024/01/16 05:47:08;;;;;;;43.77;23.97;;;14.40;64.10;;;;;;4591436;19;20001;-69
2024/01/16 05:48:43;;;;;;;49.43;28.30;;;14.50;63.90;;;;;;4591661;19;20303;-69
2024/01/16 05:50:18;;;;;;;24.70;14.40;;;14.60;63.70;;;;;;4589737;19;20073;-69
2024/01/16 05:51:54;;;;;;;29.40;17.33;;;14.60;63.70;;;;;;4590177;19;19998;-69
2024/01/16 05:53:28;;;;;;;29.47;17.93;;;14.70;63.70;;;;;;4591218;19;19998;-69
2024/01/16 05:55:06;;;;;;;15.17;10.33;;;14.70;63.70;;;;;;4590286;19;20006;-69
2024/01/16 05:56:40;;;;;;;15.50;11.10;;;14.80;63.60;;;;;;4589896;19;20002;-69
2024/01/16 05:58:15;;;;;;;14.73;9.87;;;14.80;63.60;;;;;;4590889;19;20006;-70
2024/01/16 05:59:51;;;;;;;14.63;10.20;;;14.80;63.40;;;;;;4591526;19;20057;-70
2024/01/16 06:01:26;;;;;;;24.33;16.97;;;14.70;63.20;;;;;;4589997;19;19999;-70
2024/01/16 06:03:00;;;;;;;19.80;15.10;;;14.70;63.30;;;;;;4591213;19;20024;-69
2024/01/16 06:04:36;;;;;;;23.47;16.93;;;14.60;63.50;;;;;;4591077;19;20002;-69
2024/01/16 06:06:10;;;;;;;39.43;26.17;;;14.60;63.50;;;;;;4591014;19;20007;-69
2024/01/16 06:07:45;;;;;;;38.30;24.97;;;14.50;63.50;;;;;;4594232;19;19999;-69
2024/01/16 06:09:20;;;;;;;37.70;23.03;;;14.50;63.60;;;;;;4594646;19;20007;-69
2024/01/16 06:10:55;;;;;;;31.73;19.57;;;14.40;63.80;;;;;;4594022;19;20019;-69
2024/01/16 06:12:30;;;;;;;40.23;24.50;;;14.40;64.00;;;;;;4595539;19;20003;-69
2024/01/16 06:14:07;;;;;;;52.23;31.47;;;14.30;64.00;;;;;;4595900;19;20422;-69
2024/01/16 06:15:43;;;;;;;52.40;32.20;;;14.30;63.90;;;;;;4595440;19;20062;-69
2024/01/16 06:17:16;;;;;;;44.57;25.90;;;14.20;63.60;;;;;;4595537;19;20003;-69
2024/01/16 06:18:52;;;;;;;38.97;24.33;;;14.20;63.60;;;;;;4595485;19;20006;-69
2024/01/16 06:20:29;;;;;;;45.90;30.43;;;14.10;63.50;;;;;;4594997;19;20343;-69
2024/01/16 06:22:03;;;;;;;40.80;25.00;;;14.00;63.50;;;;;;4595575;19;20006;-70
2024/01/16 06:23:39;;;;;;;27.60;16.70;;;14.00;63.50;;;;;;4594076;19;20006;-69
2024/01/16 06:25:12;;;;;;;39.83;23.87;;;14.00;63.70;;;;;;4594038;19;20005;-69
2024/01/16 06:26:47;;;;;;;26.50;17.60;;;13.90;63.80;;;;;;4595567;19;20021;-69
2024/01/16 06:28:23;;;;;;;27.33;17.67;;;13.90;63.80;;;;;;4595401;19;19995;-69
2024/01/16 06:29:56;;;;;;;28.50;18.43;;;13.80;63.80;;;;;;4595223;19;19999;-69
2024/01/16 06:31:30;;;;;;;32.23;20.57;;;13.80;63.70;;;;;;4593333;19;20014;-73
2024/01/16 06:33:07;;;;;;;30.13;18.63;;;13.80;63.70;;;;;;4595154;19;20007;-70
2024/01/16 06:34:41;;;;;;;30.97;17.33;;;13.70;63.60;;;;;;4593745;19;20022;-71
2024/01/16 06:36:15;;;;;;;36.93;19.17;;;13.70;63.70;;;;;;4594095;19;19998;-71
2024/01/16 06:37:52;;;;;;;33.70;20.87;;;13.70;63.90;;;;;;4595094;19;20010;-71
2024/01/16 06:39:27;;;;;;;30.97;18.77;;;13.60;63.90;;;;;;4595098;19;20006;-71
2024/01/16 06:41:01;;;;;;;33.97;21.50;;;13.60;64.00;;;;;;4593891;19;20437;-73
2024/01/16 06:42:36;;;;;;;22.00;15.10;;;13.60;64.00;;;;;;4594942;19;20405;-73
2024/01/16 06:44:11;;;;;;;16.77;11.33;;;13.50;63.70;;;;;;4594895;19;20006;-73
2024/01/16 06:45:46;;;;;;;12.20;9.53;;;13.50;64.00;;;;;;4594903;19;19998;-73
2024/01/16 06:47:21;;;;;;;9.93;7.83;;;13.50;64.10;;;;;;4594008;19;20002;-72
2024/01/16 06:48:55;;;;;;;20.80;15.60;;;13.40;64.00;;;;;;4594446;19;19999;-70
2024/01/16 06:50:29;;;;;;;15.57;12.50;;;13.40;63.90;;;;;;4594328;19;20073;-71
2024/01/16 06:52:05;;;;;;;15.87;12.50;;;13.40;64.00;;;;;;4594855;19;20301;-71
2024/01/16 06:53:40;;;;;;;17.70;13.80;;;13.40;64.00;;;;;;4594801;19;20002;-70
2024/01/16 06:55:14;;;;;;;17.13;13.43;;;13.30;64.00;;;;;;4594687;19;19998;-70
2024/01/16 06:56:50;;;;;;;21.40;15.43;;;13.30;63.90;;;;;;4595029;19;20087;-73
2024/01/16 06:58:24;;;;;;;23.97;18.30;;;13.30;64.30;;;;;;4594686;19;19998;-74
2024/01/16 06:59:58;;;;;;;22.20;17.57;;;13.30;64.40;;;;;;4593317;19;19998;-74
2024/01/16 07:01:34;;;;;;;22.80;18.63;;;13.20;64.30;;;;;;4592840;19;20311;-70
2024/01/16 07:03:08;;;;;;;27.07;19.80;;;13.20;65.00;;;;;;4594878;19;20213;-75
2024/01/16 07:04:43;;;;;;;29.27;20.10;;;13.20;64.60;;;;;;4594051;19;19999;-70
2024/01/16 07:06:18;;;;;;;32.00;22.40;;;13.20;64.70;;;;;;4594815;19;20178;-70
2024/01/16 07:07:52;;;;;;;29.43;19.87;;;13.20;64.60;;;;;;4594770;19;20440;-69
2024/01/16 07:09:27;;;;;;;34.33;20.87;;;13.10;64.50;;;;;;4594658;19;20022;-70
2024/01/16 07:11:07;;;;;;;31.87;20.30;;;13.20;64.60;;;;;;4593363;19;20473;-70
2024/01/16 07:12:45;;;;;;;36.63;23.73;;;13.10;64.60;;;;;;4594445;19;20010;-70
2024/01/16 07:14:19;;;;;;;44.50;26.70;;;13.10;64.60;;;;;;4593041;19;20365;-70
2024/01/16 07:15:55;;;;;;;46.03;28.60;;;13.10;64.70;;;;;;4593857;19;20401;-73
2024/01/16 07:17:28;;;;;;;50.43;31.17;;;13.10;64.70;;;;;;4592873;19;20002;-74
2024/01/16 07:19:04;;;;;;;64.57;37.47;;;13.10;64.70;;;;;;4593542;19;20002;-73
2024/01/16 07:20:39;;;;;;;97.27;53.80;;;13.10;64.80;;;;;;4593618;19;20023;-73
2024/01/16 07:22:14;;;;;;;91.60;58.40;;;13.00;64.60;;;;;;4594130;19;20422;-74
2024/01/16 07:23:49;;;;;;;85.73;50.40;;;13.00;64.70;;;;;;4594302;19;20381;-74
2024/01/16 07:25:24;;;;;;;86.13;50.27;;;13.00;64.80;;;;;;4591827;19;20002;-75
2024/01/16 07:26:59;;;;;;;74.17;47.63;;;13.10;64.90;;;;;;4593711;19;20393;-75
2024/01/16 07:28:32;;;;;;;95.77;58.50;;;13.00;65.00;;;;;;4593909;19;19998;-74
2024/01/16 07:30:09;;;;;;;87.77;53.97;;;13.10;64.90;;;;;;4593860;19;20377;-75
2024/01/16 07:31:43;;;;;;;219.13;139.37;;;13.10;64.90;;;;;;4594127;19;20300;-67
2024/01/16 07:33:17;;;;;;;119.33;72.07;;;13.10;65.00;;;;;;4593913;19;19998;-66
2024/01/16 07:34:52;;;;;;;71.73;44.53;;;13.20;65.30;;;;;;4593945;19;20503;-70
2024/01/16 07:36:27;;;;;;;68.47;42.77;;;13.10;65.50;;;;;;4593819;19;20422;-69
2024/01/16 07:38:01;;;;;;;71.83;46.30;;;13.10;65.60;;;;;;4594054;19;20423;-68
2024/01/16 07:39:36;;;;;;;64.33;40.63;;;13.10;65.60;;;;;;4593769;19;20394;-67
2024/01/16 07:41:11;;;;;;;68.27;41.67;;;13.10;65.80;;;;;;4592677;19;20449;-69
2024/01/16 07:42:46;;;;;;;67.03;45.33;;;13.10;65.90;;;;;;4593655;19;19998;-70
2024/01/16 07:44:22;;;;;;;49.97;33.20;;;13.10;66.20;;;;;;4592206;19;20007;-69
2024/01/16 07:45:57;;;;;;;44.33;28.57;;;13.10;66.20;;;;;;4592493;19;20413;-70
2024/01/16 07:47:31;;;;;;;40.63;27.73;;;13.10;66.10;;;;;;4592236;19;20476;-70
2024/01/16 07:49:07;;;;;;;53.17;29.73;;;13.00;65.90;;;;;;4593288;19;20070;-69
2024/01/16 07:50:42;;;;;;;48.47;30.10;;;13.00;65.60;;;;;;4593200;19;20021;-70
2024/01/16 07:52:16;;;;;;;51.60;32.47;;;13.00;65.60;;;;;;4592140;19;20404;-69
2024/01/16 07:54:01;;;;;;;46.37;29.03;;;13.00;65.80;;;;;;4593172;19;20405;-69
2024/01/16 07:55:35;;;;;;;41.40;27.47;;;13.00;65.90;;;;;;4592027;19;20351;-68
2024/01/16 07:57:11;;;;;;;41.87;27.50;;;13.00;66.20;;;;;;4593036;19;20011;-67
2024/01/16 07:58:46;;;;;;;31.43;21.20;;;13.00;66.20;;;;;;4593383;19;20439;-69
2024/01/16 08:00:20;;;;;;;33.93;20.93;;;13.00;66.20;;;;;;4593263;19;19999;-69
2024/01/16 08:01:57;;;;;;;29.63;19.53;;;13.00;66.30;;;;;;4593373;19;19998;-67
2024/01/16 08:03:32;;;;;;;27.90;17.33;;;12.90;66.30;;;;;;4593610;19;20683;-66
2024/01/16 08:05:06;;;;;;;26.37;16.87;;;12.90;66.20;;;;;;4592580;19;20421;-66
2024/01/16 08:06:41;;;;;;;24.07;14.77;;;13.00;66.40;;;;;;4593237;19;19999;-66
2024/01/16 08:08:18;;;;;;;21.77;13.43;;;12.90;66.20;;;;;;4593504;19;20009;-67
2024/01/16 08:09:52;;;;;;;22.03;13.03;;;12.90;66.30;;;;;;4593191;19;19998;-65
2024/01/16 08:11:27;;;;;;;22.23;13.70;;;12.90;66.20;;;;;;4591729;19;20513;-70
2024/01/16 08:13:04;;;;;;;21.97;14.23;;;12.90;66.10;;;;;;4593182;19;20022;-75
2024/01/16 08:14:38;;;;;;;24.20;14.07;;;12.90;66.10;;;;;;4592971;19;20404;-70
2024/01/16 08:16:12;;;;;;;22.83;14.80;;;12.90;66.10;;;;;;4592939;19;20491;-74
2024/01/16 08:17:48;;;;;;;19.00;12.60;;;12.90;66.40;;;;;;4593340;19;20389;-74
2024/01/16 08:19:22;;;;;;;21.77;13.37;;;12.90;66.70;;;;;;4591559;19;20408;-77
2024/01/16 08:20:57;;;;;;;24.00;14.03;;;12.90;66.80;;;;;;4590843;19;20007;-73